Strona główna
METAR-TAF:

METAR-TAF

Lotnisko :

Port lotniczy Sabadell

Sabadell, Hiszpania

Szerokość geograficzna: 41-31N, Długość geograficzna: 002-06E, wysokość: 250 m

Aktualna obserwacja pogody

Raport powstał 19 minut temu, godzina 22:00 UTC
Wiatr 2 kt z kierunków zmiennych
Temperatura 8°C
Wilgotność 87%
Ciśnienie 1019 hPa
Widzialność 10 km lub więcej
Brak chmur poniżej 1500 m i brak chmur cumulonimbus

METAR: LELL 082200Z AUTO VRB02KT CAVOK 08/06 Q1019

czas: 23:19 (22:19 UTC)

Prognoza

Raport powstał 8 godziny i 19 minut temu, godzina 14:00 UTC
Prognoza ważna od 08 godzina 15 UTC do 09 godzina 15 UTC
Wiatr 9 kt od zachód
Widzialność 10 km lub więcej
Mało chmury na wysokości 4000 ft
Przejściowo
od 09 godzina 07 UTC do 09 godzina 10 UTC
Wiatr 15 kt od zachodnio-północny zachód w porywach dochodzący do 25 kt

TAF: LELL 081400Z 0815/0915 28009KT 9999 FEW040 TX16/0913Z TN05/0906Z TEMPO 0907/0910 29015G25KT

Obserwacja i prognoza pogody dla ponad 4000 lotnisk (raport METAR i TAF).

Dostępne stacje oznaczono żółtymi i czerwonymi punktami na mapie.

Najedź kursorem aby zobaczyć nazwę stacji.

Kliknij aby zobaczyć obserwacje i prognozy pogody.

Aby zmienić mapę: kliknij na zielony przycisk z czarnym krzyżykiem, aby powiększyć; na zielony przycisk z myślnikiem, aby pomniejszyć; na zielone strzałki, aby przejść do map sąsiednich.


METAR-TAF: